createdAt,value
2018-11-04T00:00:01.132Z,88.10
2018-11-04T00:02:29.717Z,88.10
2018-11-04T00:04:58.292Z,88.10
2018-11-04T00:07:26.893Z,88.00
2018-11-04T00:09:55.474Z,88.10
2018-11-04T00:12:24.084Z,88.10
2018-11-04T00:14:52.725Z,88.20
2018-11-04T00:17:21.293Z,88.40
2018-11-04T00:19:49.892Z,88.50
2018-11-04T00:22:18.482Z,88.50
2018-11-04T00:24:47.033Z,88.60
2018-11-04T00:27:15.683Z,88.60
2018-11-04T00:29:44.307Z,88.50
2018-11-04T00:32:12.848Z,88.50
2018-11-04T00:34:41.493Z,88.40
2018-11-04T00:37:10.228Z,88.30
2018-11-04T00:39:38.800Z,88.20
2018-11-04T00:42:07.396Z,88.40
2018-11-04T00:44:35.972Z,88.50
2018-11-04T00:47:04.595Z,88.60
2018-11-04T00:49:33.176Z,88.60
2018-11-04T00:52:01.768Z,88.70
2018-11-04T00:54:30.347Z,88.70
2018-11-04T00:56:58.913Z,88.80
2018-11-04T00:59:27.597Z,88.80
2018-11-04T01:01:56.164Z,88.90
2018-11-04T01:04:24.735Z,88.80
2018-11-04T01:06:53.288Z,88.80
2018-11-04T01:09:21.892Z,88.90
2018-11-04T01:11:50.532Z,88.90
2018-11-04T01:14:19.079Z,89.00
2018-11-04T01:16:47.667Z,89.00
2018-11-04T01:19:16.217Z,88.90
2018-11-04T01:21:44.817Z,88.90
2018-11-04T01:24:13.448Z,88.90
2018-11-04T01:26:42.020Z,88.90
2018-11-04T01:29:10.642Z,88.80
2018-11-04T01:31:39.224Z,88.90
2018-11-04T01:34:07.861Z,88.80
2018-11-04T01:36:36.496Z,88.80
2018-11-04T01:39:06.932Z,88.60
2018-11-04T01:41:35.729Z,88.40
2018-11-04T01:44:04.312Z,88.30
2018-11-04T01:46:32.912Z,88.30
2018-11-04T01:49:01.496Z,88.30
2018-11-04T01:51:30.098Z,88.10
2018-11-04T01:53:58.647Z,88.00
2018-11-04T01:56:27.236Z,87.70
2018-11-04T01:58:55.828Z,87.70
2018-11-04T02:01:24.441Z,87.60
2018-11-04T02:03:53.033Z,87.50
2018-11-04T02:06:21.624Z,87.50
2018-11-04T02:08:50.221Z,87.60
2018-11-04T02:11:18.821Z,87.90
2018-11-04T02:13:47.381Z,88.10
2018-11-04T02:16:15.988Z,88.10
2018-11-04T02:18:44.604Z,88.60
2018-11-04T02:21:13.196Z,88.00
2018-11-04T02:23:41.759Z,88.00
2018-11-04T02:26:10.373Z,88.20
2018-11-04T02:28:38.980Z,88.20
2018-11-04T02:31:07.560Z,88.20
2018-11-04T02:33:36.152Z,88.20
2018-11-04T02:36:04.804Z,88.00
2018-11-04T02:38:33.391Z,88.00
2018-11-04T02:41:01.976Z,88.00
2018-11-04T02:43:30.560Z,88.20
2018-11-04T02:45:59.133Z,88.20
2018-11-04T02:48:27.719Z,88.40
2018-11-04T02:50:56.308Z,88.40
2018-11-04T02:53:24.885Z,88.40
2018-11-04T02:55:53.480Z,88.50
2018-11-04T02:58:22.068Z,88.40
2018-11-04T03:00:50.659Z,88.90
2018-11-04T03:03:19.268Z,88.40
2018-11-04T03:05:47.851Z,88.50
2018-11-04T03:08:16.444Z,88.60
2018-11-04T03:10:45.048Z,88.60
2018-11-04T03:13:13.623Z,88.80
2018-11-04T03:15:42.228Z,89.00
2018-11-04T03:18:10.831Z,89.00
2018-11-04T03:20:39.437Z,89.20
2018-11-04T03:23:08.460Z,89.20
2018-11-04T03:25:37.449Z,89.30
2018-11-04T03:28:06.589Z,89.10
2018-11-04T03:30:35.164Z,88.90
2018-11-04T03:33:03.780Z,88.80
2018-11-04T03:35:32.352Z,88.80
2018-11-04T03:38:00.943Z,88.70
2018-11-04T03:40:29.579Z,88.60
2018-11-04T03:42:58.168Z,88.50
2018-11-04T03:45:26.749Z,88.60
2018-11-04T03:47:55.327Z,88.70
2018-11-04T03:50:23.920Z,88.80
2018-11-04T03:52:52.484Z,89.10
2018-11-04T03:55:21.368Z,89.00
2018-11-04T03:57:49.964Z,89.00
2018-11-04T04:00:18.548Z,89.00
2018-11-04T04:02:47.123Z,89.10
2018-11-04T04:05:15.736Z,89.10
2018-11-04T04:07:44.316Z,89.30
2018-11-04T04:10:12.920Z,89.40
2018-11-04T04:12:41.519Z,89.60
2018-11-04T04:15:11.263Z,89.70
2018-11-04T04:17:40.121Z,89.70
2018-11-04T04:20:08.754Z,89.80
2018-11-04T04:22:37.371Z,89.90
2018-11-04T04:25:06.264Z,89.80
2018-11-04T04:27:34.836Z,89.70
2018-11-04T04:30:03.789Z,89.80
2018-11-04T04:32:32.389Z,89.90
2018-11-04T04:35:03.775Z,90.00
2018-11-04T04:37:32.352Z,90.00
2018-11-04T04:40:00.932Z,90.10
2018-11-04T04:42:29.528Z,90.20
2018-11-04T04:44:58.136Z,90.30
2018-11-04T04:47:26.737Z,90.20
2018-11-04T04:49:55.320Z,90.20
2018-11-04T04:52:23.893Z,90.20
2018-11-04T04:54:52.484Z,90.20
2018-11-04T04:57:21.069Z,90.20
2018-11-04T04:59:49.647Z,90.20
2018-11-04T05:02:18.240Z,90.20
2018-11-04T05:04:46.821Z,90.20
2018-11-04T05:07:15.408Z,90.20
2018-11-04T05:09:43.986Z,90.20
2018-11-04T05:12:12.567Z,90.20
2018-11-04T05:14:41.189Z,90.20
2018-11-04T05:17:09.788Z,90.20
2018-11-04T05:19:38.401Z,90.20
2018-11-04T05:22:07.180Z,90.20
2018-11-04T05:24:35.796Z,90.20
2018-11-04T05:27:04.409Z,90.20
2018-11-04T05:29:33.000Z,90.20
2018-11-04T05:32:01.580Z,90.10
2018-11-04T05:34:30.140Z,90.10
2018-11-04T05:36:58.688Z,90.10
2018-11-04T05:39:27.251Z,90.10
2018-11-04T05:41:55.844Z,89.90
2018-11-04T05:44:24.436Z,89.60
2018-11-04T05:46:52.996Z,89.40
2018-11-04T05:49:21.571Z,89.40
2018-11-04T05:51:50.150Z,89.30
2018-11-04T05:54:18.751Z,89.30
2018-11-04T05:56:47.317Z,89.60
2018-11-04T05:59:15.895Z,90.00
2018-11-04T06:01:44.477Z,90.20
2018-11-04T06:04:13.179Z,90.20
2018-11-04T06:06:41.775Z,90.20
2018-11-04T06:09:10.763Z,90.20
2018-11-04T06:11:39.432Z,90.10
2018-11-04T06:14:08.038Z,90.20
2018-11-04T06:16:36.615Z,90.20
2018-11-04T06:19:05.448Z,90.10
2018-11-04T06:21:34.050Z,89.90
2018-11-04T06:24:02.642Z,89.80
2018-11-04T06:26:31.216Z,89.90
2018-11-04T06:28:59.786Z,90.00
2018-11-04T06:31:28.376Z,90.10
2018-11-04T06:33:56.995Z,90.20
2018-11-04T06:36:25.600Z,90.20
2018-11-04T06:38:54.179Z,90.10
2018-11-04T06:41:22.780Z,90.10
2018-11-04T06:43:51.364Z,90.10
2018-11-04T06:46:19.975Z,90.10
2018-11-04T06:48:48.588Z,90.10
2018-11-04T06:51:17.209Z,90.00
2018-11-04T06:53:45.812Z,89.90
2018-11-04T06:56:14.396Z,89.90
2018-11-04T06:58:42.976Z,89.70
2018-11-04T07:01:11.556Z,89.60
2018-11-04T07:03:50.028Z,89.60
2018-11-04T07:06:18.644Z,89.60
2018-11-04T07:08:47.300Z,89.60
2018-11-04T07:11:15.881Z,89.50
2018-11-04T07:13:44.477Z,89.30
2018-11-04T07:16:13.057Z,89.10
2018-11-04T07:18:41.748Z,88.90
2018-11-04T07:21:10.351Z,88.90
2018-11-04T07:23:38.993Z,88.90
2018-11-04T07:26:07.674Z,88.90
2018-11-04T07:28:36.264Z,88.90
2018-11-04T07:31:04.983Z,89.00
2018-11-04T07:33:33.588Z,89.00
2018-11-04T07:36:02.269Z,89.00
2018-11-04T07:38:30.868Z,89.00
2018-11-04T07:40:59.420Z,89.00
2018-11-04T07:43:28.011Z,88.90
2018-11-04T07:45:56.605Z,88.80
2018-11-04T07:48:25.223Z,88.70
2018-11-04T07:50:53.791Z,88.70
2018-11-04T07:53:22.507Z,88.60
2018-11-04T07:55:51.124Z,88.40
2018-11-04T07:58:19.700Z,88.30
2018-11-04T08:00:48.339Z,88.00
2018-11-04T08:03:16.888Z,87.80
2018-11-04T08:05:45.476Z,87.50
2018-11-04T08:08:14.100Z,87.30
2018-11-04T08:10:42.676Z,86.90
2018-11-04T08:13:11.272Z,86.60
2018-11-04T08:15:39.920Z,86.70
2018-11-04T08:18:08.500Z,87.00
2018-11-04T08:20:37.064Z,86.90
2018-11-04T08:23:05.749Z,87.00
2018-11-04T08:25:34.387Z,87.00
2018-11-04T08:28:03.032Z,87.20
2018-11-04T08:30:31.656Z,87.50
2018-11-04T08:33:00.232Z,87.50
2018-11-04T08:35:28.849Z,87.70
2018-11-04T08:37:57.449Z,87.70
2018-11-04T08:40:26.044Z,87.60
2018-11-04T08:42:54.668Z,87.20
2018-11-04T08:45:23.230Z,86.80
2018-11-04T08:47:51.823Z,87.10
2018-11-04T08:50:20.383Z,86.30
2018-11-04T08:52:48.996Z,86.20
2018-11-04T08:55:17.588Z,86.10
2018-11-04T08:57:46.206Z,86.00
2018-11-04T09:00:15.747Z,85.70
2018-11-04T09:02:45.004Z,85.40
2018-11-04T09:05:13.608Z,85.30
2018-11-04T09:07:42.219Z,85.20
2018-11-04T09:10:13.807Z,85.10
2018-11-04T09:12:43.032Z,85.30
2018-11-04T09:15:12.042Z,85.70
2018-11-04T09:17:40.664Z,86.00
2018-11-04T09:20:13.404Z,86.10
2018-11-04T09:22:43.070Z,85.90
2018-11-04T09:25:12.045Z,85.60
2018-11-04T09:27:40.632Z,85.30
2018-11-04T09:30:11.447Z,85.20
2018-11-04T09:32:40.033Z,85.00
2018-11-04T09:35:09.587Z,84.90
2018-11-04T09:37:37.985Z,84.90
2018-11-04T09:40:08.108Z,85.10
2018-11-04T09:42:36.712Z,85.40
2018-11-04T09:45:05.924Z,85.30
2018-11-04T09:47:34.541Z,85.30
2018-11-04T09:50:03.283Z,85.50
2018-11-04T09:52:31.804Z,85.70
2018-11-04T09:55:00.411Z,86.00
2018-11-04T09:57:29.036Z,86.20
2018-11-04T09:59:57.609Z,86.20
2018-11-04T10:02:26.224Z,86.10
2018-11-04T10:04:54.816Z,85.90
2018-11-04T10:07:23.412Z,85.70
2018-11-04T10:09:52.022Z,85.50
2018-11-04T10:12:20.608Z,85.40
2018-11-04T10:14:49.205Z,85.10
2018-11-04T10:17:17.831Z,84.90
2018-11-04T10:19:46.513Z,84.60
2018-11-04T10:22:14.993Z,84.50
2018-11-04T10:24:43.576Z,84.40
2018-11-04T10:27:12.176Z,84.30
2018-11-04T10:29:40.809Z,84.40
2018-11-04T10:32:09.393Z,84.70
2018-11-04T10:34:38.011Z,85.00
2018-11-04T10:37:06.847Z,85.50
2018-11-04T10:39:35.376Z,85.60
2018-11-04T10:42:04.045Z,85.80
2018-11-04T10:44:32.629Z,85.60
2018-11-04T10:47:01.211Z,85.30
2018-11-04T10:49:29.833Z,85.10
2018-11-04T10:51:58.433Z,85.10
2018-11-04T10:54:26.989Z,85.10
2018-11-04T10:56:55.596Z,85.00
2018-11-04T10:59:24.191Z,85.00
2018-11-04T11:01:52.794Z,84.90
2018-11-04T11:04:21.411Z,84.90
2018-11-04T11:06:49.972Z,84.80
2018-11-04T11:09:18.546Z,84.70
2018-11-04T11:11:47.126Z,84.50
2018-11-04T11:14:15.742Z,84.30
2018-11-04T11:16:44.320Z,83.90
2018-11-04T11:19:13.001Z,83.40
2018-11-04T11:21:41.557Z,82.90
2018-11-04T11:24:10.156Z,82.50
2018-11-04T11:26:38.737Z,82.10
2018-11-04T11:29:07.337Z,81.90
2018-11-04T11:31:35.941Z,81.60
2018-11-04T11:34:04.764Z,81.50
2018-11-04T11:36:33.448Z,81.50
2018-11-04T11:39:02.025Z,81.50
2018-11-04T11:41:30.576Z,81.50
2018-11-04T11:43:59.176Z,81.50
2018-11-04T11:46:27.767Z,81.70
2018-11-04T11:48:56.526Z,81.90
2018-11-04T11:51:25.091Z,82.00
2018-11-04T11:53:53.660Z,82.10
2018-11-04T11:56:22.273Z,82.10
2018-11-04T11:58:50.856Z,81.90
2018-11-04T12:01:19.449Z,82.10
2018-11-04T12:03:48.032Z,82.20
2018-11-04T12:06:16.628Z,82.30
2018-11-04T12:08:45.184Z,82.40
2018-11-04T12:11:13.744Z,82.50
2018-11-04T12:13:42.323Z,82.50
2018-11-04T12:16:10.937Z,82.70
2018-11-04T12:18:39.568Z,82.90
2018-11-04T12:21:08.152Z,83.00
2018-11-04T12:23:36.741Z,82.90
2018-11-04T12:26:05.615Z,83.00
2018-11-04T12:28:34.183Z,83.00
2018-11-04T12:31:02.737Z,83.00
2018-11-04T12:33:31.300Z,83.20
2018-11-04T12:35:59.873Z,83.40
2018-11-04T12:38:28.440Z,83.60
2018-11-04T12:40:57.032Z,83.80
2018-11-04T12:43:25.632Z,83.80
2018-11-04T12:45:54.304Z,83.90
2018-11-04T12:48:22.842Z,83.80
2018-11-04T12:50:51.416Z,83.90
2018-11-04T12:53:20.224Z,84.00
2018-11-04T12:55:48.808Z,84.30
2018-11-04T12:58:17.366Z,84.30
2018-11-04T13:00:45.966Z,84.40
2018-11-04T13:03:14.516Z,84.50
2018-11-04T13:05:43.097Z,84.70
2018-11-04T13:08:11.688Z,85.00
2018-11-04T13:10:40.249Z,85.30
2018-11-04T13:13:08.844Z,85.50
2018-11-04T13:15:37.432Z,85.80
2018-11-04T13:18:06.488Z,86.10
2018-11-04T13:20:35.069Z,86.30
2018-11-04T13:23:03.689Z,86.20
2018-11-04T13:25:32.280Z,86.00
2018-11-04T13:28:00.893Z,85.90
2018-11-04T13:30:29.479Z,85.80
2018-11-04T13:32:58.196Z,85.70
2018-11-04T13:35:26.776Z,85.80
2018-11-04T13:37:55.394Z,86.00
2018-11-04T13:40:23.976Z,85.90
2018-11-04T13:42:52.579Z,86.00
2018-11-04T13:45:21.185Z,86.00
2018-11-04T13:47:49.803Z,85.90
2018-11-04T13:50:18.387Z,85.90
2018-11-04T13:52:46.968Z,85.80
2018-11-04T13:55:15.559Z,85.80
2018-11-04T13:57:44.153Z,85.80
2018-11-04T14:00:14.644Z,85.70
2018-11-04T14:02:44.165Z,85.70
2018-11-04T14:05:12.756Z,85.80
2018-11-04T14:07:41.748Z,85.70
2018-11-04T14:10:12.832Z,85.80
2018-11-04T14:12:42.103Z,85.90
2018-11-04T14:15:10.892Z,85.80
2018-11-04T14:17:39.496Z,85.70
2018-11-04T14:20:09.456Z,85.70
2018-11-04T14:22:38.261Z,86.00
2018-11-04T14:25:07.517Z,86.00
2018-11-04T14:27:36.151Z,86.20
2018-11-04T14:30:05.555Z,86.40
2018-11-04T14:32:34.128Z,86.40
2018-11-04T14:35:02.705Z,86.50
2018-11-04T14:37:31.339Z,86.60
2018-11-04T14:39:59.928Z,86.80
2018-11-04T14:42:28.540Z,87.00
2018-11-04T14:44:57.120Z,87.20
2018-11-04T14:47:25.712Z,87.30
2018-11-04T14:49:54.318Z,87.40
2018-11-04T14:52:22.876Z,87.40
2018-11-04T14:54:51.481Z,87.60
2018-11-04T14:57:20.048Z,87.70
2018-11-04T14:59:48.625Z,87.70
2018-11-04T15:02:17.236Z,87.90
2018-11-04T15:04:45.871Z,88.10
2018-11-04T15:07:14.454Z,88.40
2018-11-04T15:09:43.055Z,88.50
2018-11-04T15:12:11.692Z,88.30
2018-11-04T15:14:40.280Z,88.20
2018-11-04T15:17:08.875Z,88.10
2018-11-04T15:19:37.446Z,88.10
2018-11-04T15:22:06.160Z,88.00
2018-11-04T15:24:34.735Z,88.00
2018-11-04T15:27:03.408Z,88.20
2018-11-04T15:29:31.992Z,88.40
2018-11-04T15:32:00.665Z,88.40
2018-11-04T15:34:29.433Z,88.40
2018-11-04T15:36:57.905Z,88.40
2018-11-04T15:39:26.497Z,88.40
2018-11-04T15:41:55.060Z,88.60
2018-11-04T15:44:23.679Z,88.60
2018-11-04T15:46:52.252Z,88.60
2018-11-04T15:49:20.821Z,88.80
2018-11-04T15:51:49.424Z,89.00
2018-11-04T15:54:18.036Z,89.30
2018-11-04T15:56:46.609Z,89.60
2018-11-04T15:59:15.172Z,89.50
2018-11-04T16:01:43.764Z,89.50
2018-11-04T16:04:12.437Z,89.70
2018-11-04T16:06:40.969Z,89.70
2018-11-04T16:09:09.656Z,89.60
2018-11-04T16:11:38.252Z,89.50
2018-11-04T16:14:06.880Z,89.30
2018-11-04T16:16:35.492Z,89.30
2018-11-04T16:19:04.123Z,89.30
2018-11-04T16:21:32.745Z,89.30
2018-11-04T16:24:01.344Z,89.30
2018-11-04T16:26:29.935Z,89.30
2018-11-04T16:28:58.524Z,89.40
2018-11-04T16:31:27.128Z,89.50
2018-11-04T16:33:55.712Z,89.50
2018-11-04T16:36:24.315Z,89.50
2018-11-04T16:38:52.892Z,89.60
2018-11-04T16:41:21.500Z,89.50
2018-11-04T16:43:50.212Z,89.50
2018-11-04T16:46:18.729Z,89.60
2018-11-04T16:48:47.339Z,89.70
2018-11-04T16:51:15.888Z,90.00
2018-11-04T16:53:44.512Z,90.00
2018-11-04T16:56:13.172Z,90.00
2018-11-04T16:58:41.744Z,90.00
2018-11-04T17:01:10.381Z,89.70
2018-11-04T17:03:38.974Z,89.60
2018-11-04T17:06:07.604Z,89.50
2018-11-04T17:08:36.207Z,89.40
2018-11-04T17:11:04.844Z,89.30
2018-11-04T17:13:33.488Z,89.20
2018-11-04T17:16:02.071Z,89.30
2018-11-04T17:18:30.654Z,89.30
2018-11-04T17:20:59.228Z,89.20
2018-11-04T17:23:27.896Z,89.20
2018-11-04T17:25:56.490Z,89.40
2018-11-04T17:28:25.128Z,89.50
2018-11-04T17:30:53.710Z,89.70
2018-11-04T17:33:22.268Z,89.80
2018-11-04T17:35:50.909Z,89.80
2018-11-04T17:38:19.472Z,90.00
2018-11-04T17:40:48.075Z,90.00
2018-11-04T17:43:16.664Z,90.00
2018-11-04T17:45:45.257Z,90.00
2018-11-04T17:48:13.844Z,90.00
2018-11-04T17:50:42.416Z,90.10
2018-11-04T17:53:10.985Z,90.10
2018-11-04T17:55:39.552Z,90.10
2018-11-04T17:58:08.136Z,90.00
2018-11-04T18:00:36.708Z,90.00
2018-11-04T18:03:05.567Z,90.10
2018-11-04T18:05:34.148Z,90.30
2018-11-04T18:08:02.746Z,90.30
2018-11-04T18:10:31.315Z,90.20
2018-11-04T18:12:59.874Z,90.30
2018-11-04T18:15:28.464Z,90.30
2018-11-04T18:17:57.056Z,90.20
2018-11-04T18:20:25.627Z,90.20
2018-11-04T18:22:54.220Z,90.10
2018-11-04T18:25:22.820Z,90.00
2018-11-04T18:27:51.439Z,90.00
2018-11-04T18:30:20.048Z,90.00
2018-11-04T18:32:48.616Z,90.10
2018-11-04T18:35:17.289Z,90.10
2018-11-04T18:37:45.872Z,90.00
2018-11-04T18:40:16.035Z,90.00
2018-11-04T18:42:44.972Z,90.00
2018-11-04T18:45:14.808Z,90.00
2018-11-04T18:47:43.660Z,90.00
2018-11-04T18:50:13.260Z,90.00
2018-11-04T18:52:41.983Z,90.10
2018-11-04T18:55:11.633Z,90.00
2018-11-04T18:57:40.956Z,90.00
2018-11-04T19:00:11.885Z,90.10
2018-11-04T19:02:40.455Z,90.10
2018-11-04T19:05:09.614Z,90.20
2018-11-04T19:07:38.536Z,90.20
2018-11-04T19:10:09.351Z,90.20
2018-11-04T19:12:37.937Z,90.20
2018-11-04T19:15:06.921Z,90.10
2018-11-04T19:17:35.804Z,90.10
2018-11-04T19:20:04.794Z,90.20
2018-11-04T19:22:33.432Z,90.30
2018-11-04T19:25:02.084Z,90.40
2018-11-04T19:27:30.712Z,90.40
2018-11-04T19:29:59.324Z,90.40
2018-11-04T19:32:27.907Z,90.40
2018-11-04T19:34:56.672Z,90.40
2018-11-04T19:37:25.391Z,90.40
2018-11-04T19:39:53.940Z,90.50
2018-11-04T19:42:22.567Z,90.40
2018-11-04T19:44:51.165Z,90.60
2018-11-04T19:47:19.775Z,90.60
2018-11-04T19:49:48.404Z,90.70
2018-11-04T19:52:17.007Z,90.60
2018-11-04T19:54:45.623Z,90.50
2018-11-04T19:57:14.240Z,90.60
2018-11-04T19:59:42.868Z,90.60
2018-11-04T20:02:11.454Z,90.60
2018-11-04T20:04:40.033Z,90.70
2018-11-04T20:07:08.597Z,90.70
2018-11-04T20:09:37.207Z,90.80
2018-11-04T20:12:08.473Z,90.80
2018-11-04T20:14:37.091Z,90.80
2018-11-04T20:17:05.973Z,90.80
2018-11-04T20:19:39.922Z,90.90
2018-11-04T20:22:08.408Z,90.90
2018-11-04T20:24:42.360Z,90.90
2018-11-04T20:27:11.052Z,90.90
2018-11-04T20:29:39.639Z,90.80
2018-11-04T20:32:13.652Z,90.70
2018-11-04T20:34:42.268Z,90.70
2018-11-04T20:37:10.867Z,90.80
2018-11-04T20:39:44.836Z,90.90
2018-11-04T20:42:13.499Z,90.90
2018-11-04T20:44:45.623Z,91.00
2018-11-04T20:47:14.575Z,91.00
2018-11-04T20:49:48.597Z,91.10
2018-11-04T20:52:17.804Z,91.10
2018-11-04T20:54:46.518Z,91.10
2018-11-04T20:57:20.394Z,91.10
2018-11-04T20:59:48.988Z,91.10
2018-11-04T21:02:17.683Z,91.20
2018-11-04T21:04:46.173Z,91.30
2018-11-04T21:07:14.764Z,91.30
2018-11-04T21:09:43.375Z,91.30
2018-11-04T21:12:11.969Z,91.20
2018-11-04T21:14:40.553Z,91.30
2018-11-04T21:17:09.161Z,91.20
2018-11-04T21:19:37.757Z,91.20
2018-11-04T21:22:09.444Z,91.20
2018-11-04T21:24:38.340Z,91.20
2018-11-04T21:27:07.141Z,91.20
2018-11-04T21:29:36.420Z,91.20
2018-11-04T21:32:05.271Z,91.20
2018-11-04T21:34:34.014Z,91.10
2018-11-04T21:37:03.048Z,91.10
2018-11-04T21:39:31.651Z,91.00
2018-11-04T21:42:00.257Z,90.90
2018-11-04T21:44:28.919Z,90.80
2018-11-04T21:46:57.472Z,90.80
2018-11-04T21:49:26.099Z,90.80
2018-11-04T21:51:54.680Z,90.90
2018-11-04T21:54:23.292Z,90.90
2018-11-04T21:56:51.858Z,90.90
2018-11-04T21:59:20.448Z,91.00
2018-11-04T22:01:49.032Z,91.00
2018-11-04T22:04:17.714Z,91.10
2018-11-04T22:06:46.252Z,91.10
2018-11-04T22:09:14.904Z,91.10
2018-11-04T22:11:43.476Z,91.10
2018-11-04T22:14:12.081Z,91.10
2018-11-04T22:16:40.691Z,91.10
2018-11-04T22:19:09.253Z,91.00
2018-11-04T22:21:37.828Z,91.00
2018-11-04T22:24:06.397Z,90.90
2018-11-04T22:26:35.005Z,91.00
2018-11-04T22:29:03.587Z,91.00
2018-11-04T22:31:32.168Z,91.10
2018-11-04T22:34:00.728Z,91.10
2018-11-04T22:36:29.328Z,91.10
2018-11-04T22:38:57.905Z,91.10
2018-11-04T22:41:26.468Z,91.10
2018-11-04T22:43:55.056Z,91.10
2018-11-04T22:46:23.650Z,91.10
2018-11-04T22:48:52.280Z,91.10
2018-11-04T22:51:20.872Z,91.10
2018-11-04T22:53:49.452Z,91.10
2018-11-04T22:56:18.081Z,91.20
2018-11-04T22:58:46.643Z,91.10
2018-11-04T23:01:15.261Z,91.10
2018-11-04T23:03:43.848Z,91.10
2018-11-04T23:06:12.421Z,91.10
2018-11-04T23:08:40.992Z,91.10
2018-11-04T23:11:09.584Z,91.10
2018-11-04T23:13:38.144Z,91.10
2018-11-04T23:16:06.728Z,91.10
2018-11-04T23:18:35.353Z,91.10
2018-11-04T23:21:04.040Z,91.10
2018-11-04T23:23:32.632Z,91.20
2018-11-04T23:26:01.209Z,91.20
2018-11-04T23:28:29.789Z,91.20
2018-11-04T23:30:58.388Z,91.20
2018-11-04T23:33:26.968Z,91.20
2018-11-04T23:35:55.583Z,91.30
2018-11-04T23:38:24.172Z,91.20
2018-11-04T23:40:52.728Z,91.30
2018-11-04T23:43:21.300Z,91.30
2018-11-04T23:45:49.875Z,91.40
2018-11-04T23:48:18.449Z,91.40
2018-11-04T23:50:47.040Z,91.40
2018-11-04T23:53:15.620Z,91.40
2018-11-04T23:55:44.192Z,91.40
2018-11-04T23:58:12.760Z,91.30
